| time (UTC) | temp C | wind direction | speed KPH | gust KPH | rain 1hr cm | rain 24hr cm | rain mn cm | humidity % | barometer mb |
| 20260906162003 | 23 | 174 | 4.8 | 9.7 | 0.00 | 0.00 | 0.00 | 73 | 1020.6 |
| 20260906160003 | 22 | 173 | 3.2 | 12.9 | 0.00 | 0.00 | 0.00 | 75 | 1020.6 |
| 20260906155003 | 22 | 139 | 8.0 | 14.5 | 0.00 | 0.00 | 0.00 | 76 | 1020.6 |
| 20260906154004 | 22 | 138 | 9.7 | 19.3 | 0.00 | 0.00 | 0.00 | 75 | 1021.2 |
| 20260906153003 | 21 | 130 | 8.0 | 19.3 | 0.00 | 0.00 | 0.00 | 79 | 1021.2 |
| 20260906152003 | 20 | 156 | 4.8 | 9.7 | 0.00 | 0.00 | 0.00 | 83 | 1021.2 |
| 20260906151004 | 19 | 207 | 6.4 | 12.9 | 0.00 | 0.00 | 0.00 | 87 | 1020.7 |
| 20260906150003 | 18 | 205 | 4.8 | 11.3 | 0.00 | 0.00 | 0.00 | 90 | 1020.7 |
| 20260906145004 | 18 | 204 | 1.6 | 11.3 | 0.00 | 0.00 | 0.00 | 92 | 1020.7 |
| 20260906144004 | 18 | 175 | 8.0 | 16.1 | 0.00 | 0.00 | 0.00 | 93 | 1020.7 |
| 20260906143003 | 18 | 175 | 6.4 | 14.5 | 0.00 | 0.00 | 0.00 | 93 | 1020.7 |
| 20260906142004 | 18 | 163 | 8.0 | 14.5 | 0.00 | 0.00 | 0.00 | 93 | 1020.7 |
| 20260906140003 | 18 | 181 | 3.2 | 11.3 | 0.00 | 0.00 | 0.00 | 93 | 1020.7 |
| 20260906135004 | 17 | 140 | 1.6 | 12.9 | 0.00 | 0.00 | 0.00 | 93 | 1020.7 |
| 20260906134003 | 17 | 119 | 3.2 | 9.7 | 0.00 | 0.00 | 0.00 | 93 | 1020.8 |
| 20260906133003 | 17 | 141 | 4.8 | 11.3 | 0.00 | 0.00 | 0.00 | 93 | 1020.8 |
| 20260906132003 | 16 | 134 | 3.2 | 8.0 | 0.00 | 0.00 | 0.00 | 93 | 1020.8 |
| 20260906130003 | 16 | 135 | 6.4 | 11.3 | 0.00 | 0.00 | 0.00 | 93 | 1020.8 |
| 20260906125004 | 16 | 165 | 3.2 | 8.0 | 0.00 | 0.00 | 0.00 | 92 | 1020.8 |
| 20260906124004 | 15 | 165 | 4.8 | 4.8 | 0.00 | 0.03 | 0.00 | 92 | 1020.8 |
| 20260906123003 | 15 | 165 | 4.8 | 8.0 | 0.00 | 0.03 | 0.00 | 92 | 1020.8 |
| 20260906122004 | 15 | 165 | 3.2 | 4.8 | 0.00 | 0.03 | 0.00 | 92 | 1019.7 |
| 20260906121004 | 15 | 165 | 0.0 | 0.0 | 0.00 | 0.03 | 0.00 | 92 | 1019.7 |
| 20260906120004 | 15 | 165 | 0.0 | 0.0 | 0.00 | 0.03 | 0.00 | 92 | 1019.7 |
| 20260906115003 | 15 | 165 | 0.0 | 0.0 | 0.00 | 0.03 | 0.00 | 92 | 1019.7 |
| 20260906114003 | 15 | 165 | 0.0 | 8.0 | 0.00 | 0.03 | 0.00 | 92 | 1019.7 |
| 20260906113004 | 15 | 165 | 4.8 | 12.9 | 0.00 | 0.03 | 0.00 | 92 | 1019.7 |
| 20260906112004 | 15 | 160 | 6.4 | 9.7 | 0.00 | 0.03 | 0.00 | 92 | 1019.5 |
| 20260906111003 | 15 | 161 | 6.4 | 9.7 | 0.00 | 0.03 | 0.00 | 92 | 1019.5 |
| 20260906105003 | 15 | 161 | 6.4 | 8.0 | 0.00 | 0.03 | 0.00 | 91 | 1019.5 |
| 20260906104004 | 15 | 161 | 6.4 | 8.0 | 0.00 | 0.03 | 0.00 | 91 | 1019.5 |
| 20260906103003 | 15 | 161 | 4.8 | 9.7 | 0.00 | 0.03 | 0.00 | 91 | 1019.5 |
| 20260906102004 | 15 | 161 | 8.0 | 8.0 | 0.00 | 0.03 | 0.00 | 91 | 1019.6 |
| 20260906101003 | 15 | 161 | 4.8 | 8.0 | 0.00 | 0.03 | 0.00 | 91 | 1019.6 |
| 20260906100003 | 15 | 162 | 8.0 | 9.7 | 0.00 | 0.03 | 0.00 | 91 | 1019.6 |
| 20260906095004 | 15 | 167 | 4.8 | 8.0 | 0.00 | 0.03 | 0.00 | 91 | 1019.6 |
| 20260906094003 | 15 | 167 | 0.0 | 0.0 | 0.00 | 0.03 | 0.00 | 91 | 1019.6 |
| 20260906093003 | 16 | 167 | 0.0 | 0.0 | 0.00 | 0.03 | 0.00 | 91 | 1019.6 |
| 20260906092004 | 16 | 167 | 0.0 | 0.0 | 0.00 | 0.03 | 0.00 | 91 | 1019.2 |
| 20260906091003 | 16 | 167 | 1.6 | 4.8 | 0.00 | 0.03 | 0.00 | 91 | 1019.2 |
| 20260906090003 | 16 | 167 | 3.2 | 8.0 | 0.00 | 0.03 | 0.00 | 91 | 1019.2 |
| 20260906085003 | 16 | 173 | 4.8 | 9.7 | 0.00 | 0.03 | 0.00 | 91 | 1019.2 |
| 20260906084003 | 15 | 134 | 0.0 | 4.8 | 0.00 | 0.03 | 0.00 | 91 | 1019.2 |
| 20260906083004 | 15 | 134 | 6.4 | 9.7 | 0.00 | 0.03 | 0.00 | 91 | 1019.1 |
| 20260906082003 | 16 | 155 | 3.2 | 4.8 | 0.00 | 0.03 | 0.00 | 91 | 1019.1 |
| 20260906081004 | 16 | 155 | 1.6 | 3.2 | 0.00 | 0.03 | 0.00 | 91 | 1019.1 |
| 20260906080003 | 16 | 155 | 1.6 | 4.8 | 0.00 | 0.03 | 0.00 | 91 | 1019.1 |
| 20260906075003 | 16 | 155 | 1.6 | 3.2 | 0.00 | 0.03 | 0.00 | 91 | 1019.1 |
| 20260906074004 | 16 | 155 | 3.2 | 4.8 | 0.00 | 0.03 | 0.00 | 91 | 1019.1 |
| 20260906073003 | 16 | 155 | 0.0 | 1.6 | 0.00 | 0.03 | 0.00 | 91 | 1019.1 |
| 20260906072003 | 16 | 155 | 3.2 | 4.8 | 0.00 | 0.03 | 0.00 | 90 | 1019.1 |
| 20260906071003 | 16 | 155 | 3.2 | 4.8 | 0.00 | 0.03 | 0.00 | 90 | 1019.1 |
| 20260906070004 | 16 | 155 | 0.0 | 0.0 | 0.00 | 0.03 | 0.00 | 90 | 1019.1 |
| 20260906065003 | 16 | 155 | 0.0 | 0.0 | 0.00 | 0.03 | 0.00 | 90 | 1019.1 |
| 20260906064004 | 16 | 262 | 0.0 | 0.0 | 0.00 | 0.03 | 0.00 | 90 | 1019.1 |
| 20260906062003 | 16 | 262 | 1.6 | 3.2 | 0.00 | 0.03 | 0.00 | 89 | 1019.1 |
| 20260906060003 | 17 | 262 | 0.0 | 4.8 | 0.00 | 0.03 | 0.00 | 89 | 1019.1 |
| 20260906055003 | 17 | 261 | 1.6 | 4.8 | 0.00 | 0.03 | 0.00 | 89 | 1019.1 |
| 20260906054004 | 17 | 305 | 1.6 | 3.2 | 0.00 | 0.03 | 0.00 | 89 | 1019.1 |
| 20260906053003 | 17 | 75 | 0.0 | 3.2 | 0.00 | 0.03 | 0.00 | 89 | 1019.1 |
| 20260906052004 | 17 | 75 | 1.6 | 4.8 | 0.00 | 0.03 | 0.00 | 89 | 1019.1 |
| 20260906051003 | 17 | 19 | 1.6 | 4.8 | 0.00 | 0.03 | 0.00 | 88 | 1019.1 |
| 20260906050004 | 17 | 342 | 0.0 | 4.8 | 0.00 | 0.03 | 0.00 | 88 | 1019.1 |
| 20260906045004 | 17 | 295 | 3.2 | 4.8 | 0.00 | 0.03 | 0.03 | 88 | 1019.1 |
| 20260906044003 | 17 | 8 | 1.6 | 4.8 | 0.00 | 0.03 | 0.03 | 88 | 1019.1 |
| 20260906043004 | 17 | 30 | 3.2 | 4.8 | 0.00 | 0.03 | 0.03 | 88 | 1018.7 |
| 20260906042003 | 17 | 8 | 3.2 | 9.7 | 0.00 | 0.03 | 0.03 | 88 | 1018.7 |
| 20260906041003 | 17 | 307 | 4.8 | 8.0 | 0.00 | 0.03 | 0.03 | 87 | 1018.7 |
| 20260906040003 | 17 | 324 | 3.2 | 4.8 | 0.00 | 0.03 | 0.03 | 87 | 1018.7 |
| 20260906035003 | 17 | 302 | 3.2 | 4.8 | 0.00 | 0.03 | 0.03 | 87 | 1017.8 |
| 20260906034003 | 17 | 352 | 3.2 | 8.0 | 0.00 | 0.03 | 0.03 | 87 | 1017.8 |
| 20260906033004 | 17 | 8 | 4.8 | 11.3 | 0.00 | 0.03 | 0.03 | 86 | 1017.8 |
| 20260906032003 | 18 | 9 | 3.2 | 9.7 | 0.00 | 0.03 | 0.03 | 86 | 1017.8 |
| 20260906031004 | 18 | 22 | 4.8 | 12.9 | 0.00 | 0.03 | 0.03 | 86 | 1017.8 |
| 20260906030004 | 18 | 0 | 6.4 | 9.7 | 0.00 | 0.03 | 0.03 | 86 | 1017.8 |
| 20260906025004 | 18 | 342 | 4.8 | 8.0 | 0.00 | 0.03 | 0.03 | 86 | 1017.8 |
| 20260906023004 | 18 | 18 | 4.8 | 11.3 | 0.00 | 0.03 | 0.03 | 85 | 1017.8 |
| 20260906022004 | 18 | 41 | 6.4 | 11.3 | 0.00 | 0.03 | 0.03 | 85 | 1017.8 |
| 20260906021004 | 18 | 36 | 4.8 | 9.7 | 0.00 | 0.03 | 0.03 | 85 | 1017.8 |
| 20260906020003 | 19 | 10 | 4.8 | 8.0 | 0.00 | 0.03 | 0.03 | 84 | 1017.8 |
| 20260906015004 | 19 | 31 | 1.6 | 9.7 | 0.00 | 0.03 | 0.03 | 83 | 1017.8 |
| 20260906014003 | 19 | 2 | 4.8 | 8.0 | 0.00 | 0.03 | 0.03 | 82 | 1017.8 |
| 20260906013004 | 20 | 24 | 3.2 | 8.0 | 0.00 | 0.03 | 0.03 | 82 | 1017.8 |
| 20260906012004 | 20 | 14 | 4.8 | 8.0 | 0.00 | 0.03 | 0.03 | 81 | 1017.7 |
| 20260906010004 | 20 | 23 | 4.8 | 11.3 | 0.00 | 0.03 | 0.03 | 80 | 1017.7 |
| 20260906005004 | 21 | 23 | 4.8 | 16.1 | 0.00 | 0.03 | 0.03 | 79 | 1017.7 |
| 20260906004004 | 21 | 13 | 8.0 | 16.1 | 0.00 | 0.03 | 0.03 | 79 | 1017.7 |
| 20260906002004 | 21 | 20 | 8.0 | 19.3 | 0.00 | 0.03 | 0.03 | 77 | 1017.7 |
| 20260905235004 | 22 | 25 | 8.0 | 16.1 | 0.00 | 0.03 | 0.03 | 76 | 1017.7 |
| 20260905234004 | 22 | 4 | 9.7 | 16.1 | 0.00 | 0.03 | 0.03 | 76 | 1017.7 |
| 20260905232003 | 23 | 18 | 8.0 | 19.3 | 0.00 | 0.03 | 0.03 | 77 | 1017.7 |
| 20260905231004 | 23 | 0 | 4.8 | 19.3 | 0.00 | 0.03 | 0.03 | 77 | 1017.7 |
| 20260905230003 | 23 | 18 | 9.7 | 20.9 | 0.00 | 0.03 | 0.03 | 77 | 1017.7 |
| 20260905225003 | 23 | 8 | 3.2 | 16.1 | 0.00 | 0.03 | 0.03 | 77 | 1017.7 |
| 20260905224003 | 23 | 29 | 8.0 | 19.3 | 0.00 | 0.03 | 0.03 | 77 | 1017.7 |
| 20260905223004 | 23 | 5 | 6.4 | 19.3 | 0.00 | 0.03 | 0.03 | 77 | 1017.7 |
| 20260905222004 | 24 | 5 | 8.0 | 16.1 | 0.00 | 0.03 | 0.03 | 77 | 1017.7 |
| 20260905220003 | 24 | 17 | 9.7 | 19.3 | 0.00 | 0.03 | 0.03 | 76 | 1017.7 |
| 20260905215003 | 24 | 44 | 4.8 | 19.3 | 0.00 | 0.03 | 0.03 | 77 | 1017.7 |
| 20260905214003 | 24 | 295 | 6.4 | 9.7 | 0.00 | 0.03 | 0.03 | 76 | 1017.7 |
| 20260905212004 | 25 | 304 | 6.4 | 12.9 | 0.00 | 0.03 | 0.03 | 76 | 1017.7 |
| 20260905211004 | 24 | 308 | 6.4 | 12.9 | 0.00 | 0.03 | 0.03 | 77 | 1017.7 |
| 20260905210003 | 25 | 329 | 8.0 | 16.1 | 0.00 | 0.03 | 0.03 | 76 | 1018.0 |
| 20260905205003 | 25 | 319 | 8.0 | 16.1 | 0.00 | 0.03 | 0.03 | 76 | 1018.0 |
| 20260905204004 | 25 | 0 | 9.7 | 19.3 | 0.00 | 0.03 | 0.03 | 76 | 1018.1 |
| 20260905203003 | 25 | 29 | 12.9 | 19.3 | 0.00 | 0.03 | 0.03 | 76 | 1018.1 |
| 20260905202004 | 25 | 298 | 4.8 | 14.5 | 0.00 | 0.03 | 0.03 | 77 | 1018.1 |
| 20260905201003 | 24 | 323 | 4.8 | 12.9 | 0.00 | 0.03 | 0.03 | 76 | 1018.1 |
| 20260905200004 | 24 | 304 | 8.0 | 12.9 | 0.00 | 0.03 | 0.03 | 77 | 1018.0 |
| 20260905195004 | 24 | 268 | 6.4 | 12.9 | 0.00 | 0.03 | 0.03 | 78 | 1018.0 |
| 20260905194004 | 24 | 270 | 8.0 | 14.5 | 0.00 | 0.03 | 0.03 | 78 | 1018.0 |
| 20260905193004 | 24 | 355 | 3.2 | 12.9 | 0.00 | 0.03 | 0.03 | 78 | 1018.0 |
| 20260905191004 | 23 | 271 | 4.8 | 14.5 | 0.00 | 0.03 | 0.03 | 79 | 1018.8 |
| 20260905190004 | 23 | 262 | 3.2 | 8.0 | 0.00 | 0.03 | 0.03 | 79 | 1018.8 |
| 20260905185004 | 23 | 229 | 0.0 | 4.8 | 0.00 | 0.03 | 0.03 | 78 | 1018.8 |
| 20260905184004 | 23 | 223 | 1.6 | 8.0 | 0.00 | 0.03 | 0.03 | 80 | 1018.8 |
| 20260905183004 | 23 | 251 | 4.8 | 4.8 | 0.00 | 0.03 | 0.03 | 81 | 1018.8 |
| 20260905182003 | 23 | 103 | 1.6 | 4.8 | 0.00 | 0.03 | 0.03 | 80 | 1018.8 |
| 20260905181003 | 22 | 288 | 1.6 | 9.7 | 0.00 | 0.03 | 0.03 | 82 | 1018.8 |
| 20260905180004 | 22 | 238 | 1.6 | 4.8 | 0.00 | 0.03 | 0.03 | 82 | 1018.8 |
| 20260905174004 | 21 | 251 | 4.8 | 4.8 | 0.00 | 0.03 | 0.03 | 85 | 1018.8 |
| 20260905173004 | 21 | 151 | 3.2 | 9.7 | 0.00 | 0.03 | 0.03 | 85 | 1018.8 |
| 20260905172004 | 21 | 172 | 4.8 | 11.3 | 0.00 | 0.03 | 0.03 | 87 | 1019.1 |
| 20260905170004 | 20 | 134 | 1.6 | 9.7 | 0.00 | 0.03 | 0.03 | 89 | 1019.1 |
| 20260905165004 | 20 | 161 | 3.2 | 9.7 | 0.00 | 0.03 | 0.03 | 90 | 1019.1 |
| 20260905164005 | 20 | 278 | 1.6 | 4.8 | 0.00 | 0.03 | 0.03 | 91 | 1019.3 |
| 20260905163003 | 19 | 121 | 0.0 | 4.8 | 0.00 | 0.03 | 0.03 | 91 | 1019.3 |